Time;durP1;ratioP1;P1;durP2;ratioP2;P2;SDS_P1;SDS_P2;PMS_P1;PMS_P2;Temp;Humidity;BMP_temperature;BMP_pressure;BME280_temperature;BME280_humidity;BME280_pressure;Samples;Min_cycle;Max_cycle;Signal;HPM_P1;HPM_P2
2023/12/18 00:00:47;;;;;;;14.93;14.33;;;2.20;99.90;;;;;;5114374;28;20231;-62
2023/12/18 00:03:14;;;;;;;15.23;14.63;;;2.10;99.90;;;;;;5107104;28;20209;-63
2023/12/18 00:05:41;;;;;;;15.10;14.50;;;2.10;99.90;;;;;;5110334;28;20202;-61
2023/12/18 00:08:08;;;;;;;14.13;13.63;;;2.10;99.90;;;;;;5110750;28;20233;-62
2023/12/18 00:10:36;;;;;;;13.83;13.30;;;2.00;99.90;;;;;;5106096;28;20529;-63
2023/12/18 00:13:03;;;;;;;13.50;13.00;;;2.20;99.90;;;;;;5110528;28;20585;-63
2023/12/18 00:15:30;;;;;;;13.53;13.03;;;2.30;99.90;;;;;;5114769;28;20202;-62
2023/12/18 00:17:56;;;;;;;13.80;13.30;;;2.40;99.90;;;;;;5109923;28;20240;-62
2023/12/18 00:20:23;;;;;;;13.57;13.07;;;2.40;99.90;;;;;;5113529;28;20198;-62
2023/12/18 00:22:50;;;;;;;14.00;13.50;;;2.50;99.90;;;;;;5110357;28;20222;-62
2023/12/18 00:25:17;;;;;;;14.03;13.53;;;2.40;99.90;;;;;;5110955;28;20202;-61
2023/12/18 00:27:45;;;;;;;13.30;12.80;;;2.50;99.90;;;;;;5113992;28;20217;-62
2023/12/18 00:30:12;;;;;;;13.30;12.80;;;2.60;99.90;;;;;;5113624;28;20202;-62
2023/12/18 00:32:39;;;;;;;13.67;13.17;;;2.60;99.90;;;;;;5112961;28;20194;-63
2023/12/18 00:35:06;;;;;;;15.27;14.67;;;2.70;99.90;;;;;;5114021;27;20573;-61
2023/12/18 00:37:33;;;;;;;14.77;14.27;;;2.60;99.90;;;;;;5112896;27;20206;-63
2023/12/18 00:40:00;;;;;;;14.57;14.07;;;2.50;99.90;;;;;;5119386;27;20202;-63
2023/12/18 00:42:26;;;;;;;15.57;14.97;;;2.40;99.90;;;;;;5119882;27;20236;-63
2023/12/18 00:44:54;;;;;;;15.60;15.00;;;2.40;99.90;;;;;;5115697;27;20202;-61
2023/12/18 00:47:21;;;;;;;15.77;15.17;;;2.40;99.90;;;;;;5114145;28;20214;-61
2023/12/18 00:49:48;;;;;;;15.20;14.60;;;2.40;99.90;;;;;;5119916;27;20202;-62
2023/12/18 00:52:15;;;;;;;15.43;14.90;;;2.30;99.90;;;;;;5113199;27;20205;-62
2023/12/18 00:54:42;;;;;;;15.43;14.83;;;2.30;99.90;;;;;;5113165;28;20530;-62
2023/12/18 00:57:08;;;;;;;15.47;14.87;;;2.20;99.90;;;;;;5110111;28;20213;-63
2023/12/18 00:59:35;;;;;;;15.00;14.50;;;2.30;99.90;;;;;;5111482;27;20596;-63
2023/12/18 01:02:03;;;;;;;15.17;14.57;;;2.30;99.90;;;;;;5107706;28;20225;-62
2023/12/18 01:04:30;;;;;;;14.37;13.87;;;2.30;99.90;;;;;;5114179;27;20206;-63
2023/12/18 01:06:57;;;;;;;14.63;14.10;;;2.20;99.90;;;;;;5112734;28;20229;-62
2023/12/18 01:09:23;;;;;;;14.47;13.90;;;2.20;99.90;;;;;;5120807;27;20234;-62
2023/12/18 01:11:51;;;;;;;14.70;14.20;;;2.20;99.90;;;;;;5113627;27;20198;-63
2023/12/18 01:14:17;;;;;;;14.93;14.33;;;2.10;99.90;;;;;;5112900;27;20262;-63
2023/12/18 01:16:44;;;;;;;15.00;14.40;;;2.20;99.90;;;;;;5116196;27;20202;-63
2023/12/18 01:19:12;;;;;;;14.37;13.87;;;2.20;99.90;;;;;;5110134;28;20603;-62
2023/12/18 01:21:39;;;;;;;15.03;14.43;;;2.20;99.90;;;;;;5112867;28;20218;-61
2023/12/18 01:24:06;;;;;;;14.67;14.17;;;2.20;99.90;;;;;;5113473;28;20213;-62
2023/12/18 01:26:37;;;;;;;14.53;14.03;;;2.20;99.90;;;;;;5126726;28;20213;-62
2023/12/18 01:29:03;;;;;;;14.57;13.97;;;2.30;99.90;;;;;;5130942;28;20222;-62
2023/12/18 01:31:30;;;;;;;14.10;13.60;;;2.30;99.90;;;;;;5122085;28;20205;-62
2023/12/18 01:33:59;;;;;;;13.70;13.20;;;2.30;99.90;;;;;;5117778;27;21649;-61
2023/12/18 01:36:27;;;;;;;14.23;13.73;;;2.30;99.90;;;;;;5113110;28;20222;-61
2023/12/18 01:38:54;;;;;;;13.53;13.03;;;2.40;99.90;;;;;;5112780;28;20226;-61
2023/12/18 01:41:21;;;;;;;14.03;13.53;;;2.40;99.90;;;;;;5112197;27;20221;-61
2023/12/18 01:43:48;;;;;;;14.13;13.63;;;2.40;99.90;;;;;;5113969;27;20245;-63
2023/12/18 01:46:21;;;;;;;13.77;13.27;;;2.40;99.90;;;;;;5112510;28;20205;-62
2023/12/18 01:48:49;;;;;;;13.33;12.83;;;2.50;99.90;;;;;;5115065;27;20688;-62
2023/12/18 01:51:16;;;;;;;12.93;12.43;;;2.60;99.90;;;;;;5118262;27;20198;-61
2023/12/18 01:53:46;;;;;;;13.33;12.83;;;2.70;99.90;;;;;;5127575;27;20206;-62
2023/12/18 01:56:15;;;;;;;13.30;12.80;;;2.70;99.90;;;;;;5127101;27;20236;-62
2023/12/18 01:58:43;;;;;;;13.83;13.33;;;2.80;99.90;;;;;;5128692;27;20213;-63
2023/12/18 02:01:11;;;;;;;12.67;12.23;;;2.90;99.90;;;;;;5122092;27;20198;-63
2023/12/18 02:03:39;;;;;;;12.80;12.40;;;2.90;99.90;;;;;;5113856;27;20303;-63
2023/12/18 02:06:07;;;;;;;13.50;13.00;;;2.80;99.90;;;;;;5111918;28;20213;-62
2023/12/18 02:08:33;;;;;;;12.40;12.00;;;2.80;99.90;;;;;;5112094;28;20218;-62
2023/12/18 02:11:02;;;;;;;13.47;12.97;;;2.70;99.90;;;;;;5111255;28;20580;-61
2023/12/18 02:13:29;;;;;;;14.13;13.63;;;2.60;99.90;;;;;;5108813;28;20754;-62
2023/12/18 02:15:55;;;;;;;14.47;13.97;;;2.50;99.90;;;;;;5111352;28;20512;-62
2023/12/18 02:18:22;;;;;;;14.90;14.30;;;2.50;99.90;;;;;;5110654;28;20238;-62
2023/12/18 02:20:49;;;;;;;15.97;15.33;;;2.40;99.90;;;;;;5110541;27;20696;-63
2023/12/18 02:23:17;;;;;;;14.40;13.90;;;2.40;99.90;;;;;;5110340;28;20221;-61
2023/12/18 02:25:44;;;;;;;13.97;13.47;;;2.50;99.90;;;;;;5111514;28;20206;-63
2023/12/18 02:28:12;;;;;;;14.27;13.77;;;2.50;99.90;;;;;;5110904;28;20222;-63
2023/12/18 02:30:39;;;;;;;14.97;14.37;;;2.50;99.90;;;;;;5111517;28;20227;-62
2023/12/18 02:33:06;;;;;;;13.97;13.47;;;2.50;99.90;;;;;;5107297;28;20206;-62
2023/12/18 02:35:32;;;;;;;14.47;13.97;;;2.60;99.90;;;;;;5111329;28;20217;-61
2023/12/18 02:37:59;;;;;;;13.63;13.13;;;2.70;99.90;;;;;;5111285;28;20232;-61
2023/12/18 02:40:27;;;;;;;14.17;13.67;;;2.70;99.90;;;;;;5111590;28;20202;-61
2023/12/18 02:42:54;;;;;;;13.97;13.47;;;2.60;99.90;;;;;;5110048;28;20230;-61
2023/12/18 02:45:21;;;;;;;13.60;13.10;;;2.40;99.90;;;;;;5110519;28;20584;-61
2023/12/18 02:47:47;;;;;;;13.97;13.47;;;2.30;99.90;;;;;;5110464;28;20309;-62
2023/12/18 02:50:15;;;;;;;13.00;12.50;;;2.40;99.90;;;;;;5111442;28;20574;-62
2023/12/18 02:52:42;;;;;;;13.43;12.93;;;2.30;99.90;;;;;;5112434;28;20563;-62
2023/12/18 02:55:11;;;;;;;13.00;12.50;;;2.40;99.90;;;;;;5111850;28;20198;-61
2023/12/18 02:57:39;;;;;;;13.27;12.77;;;2.40;99.90;;;;;;5109393;28;20197;-63
2023/12/18 03:00:08;;;;;;;13.27;12.77;;;2.40;99.90;;;;;;5109018;28;20235;-63
2023/12/18 03:02:34;;;;;;;14.73;14.23;;;2.30;99.90;;;;;;5107045;28;20308;-61
2023/12/18 03:05:01;;;;;;;15.70;15.10;;;2.30;99.90;;;;;;5110256;28;20664;-63
2023/12/18 03:07:28;;;;;;;15.67;15.07;;;2.20;99.90;;;;;;5125409;28;20236;-63
2023/12/18 03:09:55;;;;;;;14.37;13.87;;;2.20;99.90;;;;;;5120620;28;20216;-63
2023/12/18 03:12:21;;;;;;;15.10;14.60;;;2.20;99.90;;;;;;5111979;28;20201;-63
2023/12/18 03:14:49;;;;;;;15.43;14.83;;;2.20;99.90;;;;;;5111472;28;20202;-62
2023/12/18 03:17:16;;;;;;;14.53;14.03;;;2.20;99.90;;;;;;5110030;28;20210;-61
2023/12/18 03:19:43;;;;;;;13.73;13.23;;;2.20;99.90;;;;;;5110912;28;20488;-62
2023/12/18 03:22:09;;;;;;;14.63;14.13;;;2.30;99.90;;;;;;5109735;28;20224;-64
2023/12/18 03:24:39;;;;;;;13.90;13.40;;;2.30;99.90;;;;;;5112048;28;20233;-64
2023/12/18 03:27:06;;;;;;;13.80;13.30;;;2.30;99.90;;;;;;5110388;28;20212;-63
2023/12/18 03:29:33;;;;;;;13.87;13.37;;;2.30;99.90;;;;;;5110016;28;20225;-63
2023/12/18 03:32:03;;;;;;;13.57;13.07;;;2.40;99.90;;;;;;5110208;28;20201;-64
2023/12/18 03:34:30;;;;;;;13.97;13.47;;;2.50;99.90;;;;;;5110644;28;20210;-63
2023/12/18 03:36:57;;;;;;;14.67;14.17;;;2.60;99.90;;;;;;5110756;28;20206;-63
2023/12/18 03:39:23;;;;;;;15.87;15.27;;;2.50;99.90;;;;;;5110057;28;20719;-62
2023/12/18 03:41:50;;;;;;;15.53;14.93;;;2.40;99.90;;;;;;5109729;28;20201;-62
2023/12/18 03:44:17;;;;;;;15.43;14.83;;;2.20;99.90;;;;;;5109414;28;20225;-62
2023/12/18 03:46:44;;;;;;;14.60;14.10;;;2.00;99.90;;;;;;5110618;28;20204;-62
2023/12/18 03:49:12;;;;;;;14.40;13.90;;;1.90;99.90;;;;;;5110544;28;20225;-63
2023/12/18 03:51:38;;;;;;;14.93;14.33;;;1.80;99.90;;;;;;5110436;28;20232;-63
2023/12/18 03:54:05;;;;;;;14.83;14.33;;;1.70;99.90;;;;;;5110417;28;20653;-63
2023/12/18 03:56:32;;;;;;;14.27;13.70;;;1.70;99.90;;;;;;5110827;28;20209;-63
2023/12/18 03:58:59;;;;;;;14.60;14.10;;;1.80;99.90;;;;;;5110245;28;20699;-62
2023/12/18 04:01:31;;;;;;;14.67;14.17;;;1.80;99.90;;;;;;5113678;28;20198;-62
2023/12/18 04:03:58;;;;;;;14.50;13.90;;;1.70;99.90;;;;;;5110337;27;20234;-62
2023/12/18 04:06:26;;;;;;;13.97;13.47;;;1.70;99.90;;;;;;5114485;28;20213;-62
2023/12/18 04:08:53;;;;;;;14.57;14.00;;;1.80;99.90;;;;;;5113809;28;20594;-66
2023/12/18 04:11:21;;;;;;;13.97;13.47;;;1.80;99.90;;;;;;5113099;28;20198;-63
2023/12/18 04:13:48;;;;;;;14.60;14.00;;;1.90;99.90;;;;;;5110862;28;20707;-63
2023/12/18 04:16:14;;;;;;;13.57;13.07;;;1.90;99.90;;;;;;5114027;28;20209;-62
2023/12/18 04:18:41;;;;;;;13.47;12.97;;;2.00;99.90;;;;;;5114993;27;20248;-62
2023/12/18 04:21:08;;;;;;;14.10;13.60;;;2.00;99.90;;;;;;5111838;27;20205;-62
2023/12/18 04:23:36;;;;;;;14.33;13.83;;;2.00;99.90;;;;;;5114752;27;20218;-62
2023/12/18 04:26:03;;;;;;;13.80;13.30;;;2.00;99.90;;;;;;5113593;27;20208;-63
2023/12/18 04:28:29;;;;;;;13.70;13.20;;;2.10;99.90;;;;;;5113723;28;20282;-62
2023/12/18 04:30:56;;;;;;;13.80;13.30;;;2.00;99.90;;;;;;5114396;28;20198;-64
2023/12/18 04:33:23;;;;;;;14.77;14.17;;;2.00;99.90;;;;;;5114197;28;20194;-62
2023/12/18 04:35:50;;;;;;;13.73;13.23;;;2.00;99.90;;;;;;5117603;27;20589;-62
2023/12/18 04:38:16;;;;;;;13.93;13.43;;;2.00;99.90;;;;;;5111348;28;20233;-62
2023/12/18 04:40:44;;;;;;;15.47;14.87;;;2.00;99.90;;;;;;5117810;27;20217;-63
2023/12/18 04:43:11;;;;;;;14.70;14.10;;;2.00;99.90;;;;;;5114195;28;20232;-63
2023/12/18 04:45:38;;;;;;;13.73;13.23;;;2.00;99.90;;;;;;5125968;28;20198;-63
2023/12/18 04:48:05;;;;;;;14.00;13.50;;;2.10;99.90;;;;;;5125905;27;20290;-62
2023/12/18 04:50:32;;;;;;;12.50;12.00;;;2.00;99.90;;;;;;5115249;27;20198;-62
2023/12/18 04:52:59;;;;;;;14.87;14.27;;;2.00;99.90;;;;;;5114026;28;20206;-63
2023/12/18 04:55:25;;;;;;;14.10;13.60;;;2.00;99.90;;;;;;5117976;27;20664;-62
2023/12/18 04:57:53;;;;;;;14.87;14.27;;;2.00;99.90;;;;;;5133604;27;20217;-63
2023/12/18 05:00:20;;;;;;;14.83;14.23;;;2.00;99.90;;;;;;5132086;27;20229;-63
2023/12/18 05:02:48;;;;;;;14.27;13.77;;;2.00;99.90;;;;;;5128693;27;20808;-63
2023/12/18 05:05:14;;;;;;;14.13;13.63;;;1.90;99.90;;;;;;5131808;27;20232;-63
2023/12/18 05:07:41;;;;;;;13.77;13.27;;;1.90;99.90;;;;;;5125103;27;20228;-62
2023/12/18 05:10:08;;;;;;;14.10;13.57;;;1.90;99.90;;;;;;5127944;28;20202;-62
2023/12/18 05:12:35;;;;;;;14.63;14.13;;;2.00;99.90;;;;;;5125394;28;20223;-63
2023/12/18 05:15:04;;;;;;;14.35;13.75;;;2.00;99.90;;;;;;5122403;27;20209;-62
2023/12/18 05:17:30;;;;;;;14.90;14.30;;;1.90;99.90;;;;;;5120777;27;20214;-62
2023/12/18 05:19:57;;;;;;;14.13;13.53;;;1.90;99.90;;;;;;5118453;27;20206;-64
2023/12/18 05:22:24;;;;;;;13.93;13.43;;;2.00;99.90;;;;;;5115736;27;20570;-62
2023/12/18 05:24:50;;;;;;;14.77;14.17;;;2.00;99.90;;;;;;5118104;27;20217;-62
2023/12/18 05:27:20;;;;;;;13.57;13.07;;;2.10;99.90;;;;;;5117215;28;20217;-63
2023/12/18 05:29:46;;;;;;;13.70;13.20;;;2.00;99.90;;;;;;5120785;27;20203;-63
2023/12/18 05:32:14;;;;;;;13.47;12.97;;;2.00;99.90;;;;;;5115923;27;20217;-63
2023/12/18 05:34:41;;;;;;;13.37;12.87;;;2.10;99.90;;;;;;5123437;27;20229;-62
2023/12/18 05:37:08;;;;;;;14.03;13.53;;;2.10;99.90;;;;;;5121040;27;20225;-63
2023/12/18 05:39:34;;;;;;;13.93;13.43;;;2.10;99.90;;;;;;5113264;28;20770;-59
2023/12/18 05:42:01;;;;;;;14.60;14.00;;;2.10;99.90;;;;;;5115362;28;20241;-61
2023/12/18 05:44:28;;;;;;;13.93;13.43;;;2.00;99.90;;;;;;5114522;28;20680;-59
2023/12/18 05:46:55;;;;;;;14.00;13.50;;;2.00;99.90;;;;;;5119057;27;20205;-62
2023/12/18 05:49:23;;;;;;;14.57;13.97;;;2.10;99.90;;;;;;5112818;27;20731;-62
2023/12/18 05:51:50;;;;;;;14.17;13.57;;;2.10;99.90;;;;;;5124712;27;20208;-63
2023/12/18 05:54:17;;;;;;;14.60;14.00;;;2.10;99.90;;;;;;5123398;27;20205;-63
2023/12/18 05:56:44;;;;;;;14.77;14.17;;;2.10;99.90;;;;;;5127278;27;20208;-63
2023/12/18 05:59:11;;;;;;;15.07;14.47;;;2.10;99.90;;;;;;5125962;27;20221;-61
2023/12/18 06:01:37;;;;;;;14.13;13.53;;;2.10;99.90;;;;;;5127505;27;20201;-62
2023/12/18 06:04:04;;;;;;;13.30;12.80;;;2.00;99.90;;;;;;5121583;27;20233;-63
2023/12/18 06:06:32;;;;;;;13.43;12.93;;;2.00;99.90;;;;;;5127003;27;20227;-64
2023/12/18 06:08:59;;;;;;;14.00;13.50;;;2.00;99.90;;;;;;5127572;27;20236;-63
2023/12/18 06:11:26;;;;;;;13.83;13.33;;;2.00;99.90;;;;;;5127049;27;20198;-62
2023/12/18 06:13:52;;;;;;;13.30;12.80;;;1.90;99.90;;;;;;5127044;27;20217;-62
2023/12/18 06:16:19;;;;;;;13.67;13.17;;;1.90;99.90;;;;;;5123369;27;21510;-62
2023/12/18 06:18:46;;;;;;;13.60;13.07;;;1.90;99.90;;;;;;5132483;27;20955;-62
2023/12/18 06:21:13;;;;;;;13.67;13.17;;;2.00;99.90;;;;;;5120987;27;20198;-63
2023/12/18 06:23:43;;;;;;;14.20;13.70;;;2.00;99.90;;;;;;5127417;27;20213;-62
2023/12/18 06:26:10;;;;;;;13.90;13.40;;;1.80;99.90;;;;;;5129915;27;20207;-61
2023/12/18 06:28:37;;;;;;;13.83;13.23;;;1.80;99.90;;;;;;5126285;27;20232;-61
2023/12/18 06:31:04;;;;;;;13.83;13.33;;;1.80;99.90;;;;;;5122388;27;20587;-62
2023/12/18 06:33:30;;;;;;;14.43;13.83;;;1.90;99.90;;;;;;5119944;27;20661;-62
2023/12/18 06:35:57;;;;;;;14.10;13.50;;;1.90;99.90;;;;;;5119744;27;20205;-61
2023/12/18 06:38:24;;;;;;;13.67;13.13;;;1.90;99.90;;;;;;5119934;27;20301;-62
2023/12/18 06:40:52;;;;;;;14.67;14.07;;;2.00;99.90;;;;;;5118483;27;20666;-61
2023/12/18 06:43:19;;;;;;;14.00;13.40;;;2.00;99.90;;;;;;5114007;27;20218;-61
2023/12/18 06:45:45;;;;;;;13.67;13.17;;;2.00;99.90;;;;;;5115872;27;20213;-63
2023/12/18 06:48:12;;;;;;;13.63;13.13;;;2.00;99.90;;;;;;5110702;28;20218;-63
2023/12/18 06:50:39;;;;;;;13.70;13.17;;;2.10;99.90;;;;;;5114850;27;20594;-62
2023/12/18 06:53:05;;;;;;;14.13;13.57;;;2.10;99.90;;;;;;5117987;27;20213;-63
2023/12/18 06:55:34;;;;;;;13.30;12.80;;;2.10;99.90;;;;;;5111860;28;20660;-62
2023/12/18 06:58:02;;;;;;;13.67;13.17;;;2.10;99.90;;;;;;5111541;28;20372;-64
2023/12/18 07:00:29;;;;;;;13.70;13.10;;;2.00;99.90;;;;;;5111155;27;20692;-61
2023/12/18 07:02:56;;;;;;;13.13;12.63;;;2.10;99.90;;;;;;5109235;28;20209;-68
2023/12/18 07:05:23;;;;;;;13.93;13.33;;;2.10;99.90;;;;;;5115279;27;20201;-64
2023/12/18 07:07:50;;;;;;;13.63;13.07;;;2.10;99.90;;;;;;5124117;27;20608;-65
2023/12/18 07:10:17;;;;;;;13.30;12.70;;;2.10;99.90;;;;;;5121485;27;20749;-65
2023/12/18 07:12:44;;;;;;;13.17;12.67;;;2.20;99.90;;;;;;5121431;27;20574;-64
2023/12/18 07:15:12;;;;;;;11.93;11.53;;;2.20;99.90;;;;;;5114644;27;20224;-65
2023/12/18 07:17:39;;;;;;;13.17;12.67;;;2.20;99.90;;;;;;5129087;27;20685;-65
2023/12/18 07:20:08;;;;;;;12.27;11.77;;;2.20;99.90;;;;;;5126692;27;20972;-64
2023/12/18 07:22:35;;;;;;;13.03;12.53;;;2.20;99.90;;;;;;5117115;28;20590;-64
2023/12/18 07:25:02;;;;;;;12.87;12.37;;;2.20;99.90;;;;;;5122493;27;20698;-65
2023/12/18 07:27:29;;;;;;;13.23;12.73;;;2.20;99.90;;;;;;5126235;28;20209;-66
2023/12/18 07:29:56;;;;;;;13.17;12.57;;;2.20;99.90;;;;;;5127967;27;20198;-64
2023/12/18 07:32:24;;;;;;;12.17;11.67;;;2.10;99.90;;;;;;5124372;27;20201;-65
2023/12/18 07:34:51;;;;;;;13.93;13.33;;;2.20;99.90;;;;;;5116704;27;20649;-66
2023/12/18 07:37:17;;;;;;;14.17;13.57;;;2.20;99.90;;;;;;5121719;28;20205;-66
2023/12/18 07:39:44;;;;;;;12.33;11.90;;;2.10;99.90;;;;;;5121700;28;20241;-65
2023/12/18 07:42:11;;;;;;;12.73;12.23;;;2.10;99.90;;;;;;5122354;28;20202;-65
2023/12/18 07:44:37;;;;;;;13.57;12.97;;;2.00;99.90;;;;;;5127570;27;20244;-65
2023/12/18 07:47:06;;;;;;;14.23;13.63;;;2.00;99.90;;;;;;5119975;28;20198;-66
2023/12/18 07:49:35;;;;;;;14.03;13.43;;;1.90;99.90;;;;;;5126605;27;20233;-65
2023/12/18 07:52:01;;;;;;;14.63;14.03;;;1.90;99.90;;;;;;5118196;28;20205;-65
2023/12/18 07:54:28;;;;;;;14.70;14.10;;;1.80;99.90;;;;;;5119230;27;20203;-65
2023/12/18 07:56:55;;;;;;;13.90;13.40;;;1.80;99.90;;;;;;5119361;27;20213;-66
2023/12/18 07:59:22;;;;;;;15.10;14.50;;;1.80;99.90;;;;;;5122611;27;20213;-64
2023/12/18 08:01:48;;;;;;;15.07;14.47;;;1.80;99.90;;;;;;5116200;27;20656;-64
2023/12/18 08:04:15;;;;;;;13.97;13.37;;;1.80;99.90;;;;;;5117311;27;20233;-65
2023/12/18 08:06:43;;;;;;;14.40;13.80;;;1.90;99.90;;;;;;5115700;28;20672;-65
2023/12/18 08:09:10;;;;;;;14.50;13.90;;;2.00;99.90;;;;;;5110302;28;20218;-64
2023/12/18 08:11:38;;;;;;;13.90;13.33;;;2.20;99.90;;;;;;5122239;27;20209;-65
2023/12/18 08:14:05;;;;;;;13.43;12.93;;;2.30;99.90;;;;;;5115706;27;20193;-65
2023/12/18 08:16:31;;;;;;;13.67;13.17;;;2.50;99.90;;;;;;5114901;28;20202;-63
2023/12/18 08:18:59;;;;;;;13.97;13.37;;;2.60;99.90;;;;;;5114542;28;20236;-65
2023/12/18 08:21:26;;;;;;;14.93;14.33;;;2.60;99.90;;;;;;5121879;27;20212;-66
2023/12/18 08:23:54;;;;;;;14.67;14.07;;;2.60;99.90;;;;;;5120254;27;20641;-65
2023/12/18 08:26:22;;;;;;;15.60;15.00;;;2.60;99.90;;;;;;5116195;27;20213;-64
2023/12/18 08:28:49;;;;;;;14.30;13.70;;;2.60;99.90;;;;;;5118357;27;20285;-65
2023/12/18 08:31:15;;;;;;;14.57;13.87;;;2.70;99.90;;;;;;5114139;28;20208;-64
2023/12/18 08:33:42;;;;;;;13.70;13.20;;;2.70;99.90;;;;;;5115049;28;20190;-64
2023/12/18 08:36:09;;;;;;;13.93;13.43;;;2.80;99.90;;;;;;5119022;28;20293;-64
2023/12/18 08:38:36;;;;;;;14.20;13.60;;;2.90;99.90;;;;;;5120350;27;20233;-65
2023/12/18 08:41:04;;;;;;;13.83;13.33;;;3.00;99.90;;;;;;5118953;27;20573;-64
2023/12/18 08:43:31;;;;;;;13.23;12.73;;;3.10;99.90;;;;;;5116131;28;20202;-65
2023/12/18 08:45:57;;;;;;;13.30;12.80;;;3.30;99.90;;;;;;5115777;28;20202;-65
2023/12/18 08:48:24;;;;;;;13.90;13.30;;;3.40;99.90;;;;;;5119926;27;20770;-65
2023/12/18 08:50:51;;;;;;;13.43;12.93;;;3.50;99.90;;;;;;5117334;27;20205;-65
2023/12/18 08:53:18;;;;;;;13.40;12.90;;;3.60;99.90;;;;;;5118320;27;20582;-64
2023/12/18 08:55:44;;;;;;;12.40;11.90;;;3.70;99.90;;;;;;5116230;28;20252;-66
2023/12/18 08:58:13;;;;;;;12.47;11.97;;;3.80;99.90;;;;;;5116199;27;20222;-66
2023/12/18 09:00:39;;;;;;;13.13;12.60;;;4.00;99.90;;;;;;5121724;27;20206;-66
2023/12/18 09:03:06;;;;;;;12.40;11.90;;;4.00;99.90;;;;;;5112007;28;20205;-64
2023/12/18 09:05:33;;;;;;;12.50;12.00;;;4.10;99.90;;;;;;5116484;27;20540;-64
2023/12/18 09:08:00;;;;;;;12.50;12.00;;;4.20;99.90;;;;;;5107518;27;20233;-64
2023/12/18 09:10:28;;;;;;;13.00;12.50;;;4.30;99.90;;;;;;5120648;27;20236;-64
2023/12/18 09:12:55;;;;;;;12.43;11.93;;;4.40;99.90;;;;;;5115222;28;20239;-63
2023/12/18 09:15:23;;;;;;;12.70;12.20;;;4.50;99.90;;;;;;5111104;28;20213;-64
2023/12/18 09:17:50;;;;;;;12.40;11.90;;;4.70;99.90;;;;;;5115683;28;20248;-64
2023/12/18 09:20:17;;;;;;;12.50;11.93;;;4.80;99.90;;;;;;5111653;28;20202;-65
2023/12/18 09:22:46;;;;;;;12.43;11.93;;;4.80;99.90;;;;;;5111635;28;20213;-65
2023/12/18 09:25:12;;;;;;;12.23;11.73;;;4.80;99.90;;;;;;5117716;27;20712;-68
2023/12/18 09:27:39;;;;;;;12.50;12.00;;;4.80;99.90;;;;;;5114909;28;20206;-65
2023/12/18 09:30:07;;;;;;;13.70;13.13;;;4.70;99.90;;;;;;5127900;27;20206;-64
2023/12/18 09:32:35;;;;;;;13.10;12.60;;;4.70;99.90;;;;;;5130735;27;20214;-64
2023/12/18 09:35:02;;;;;;;12.70;12.20;;;4.80;99.90;;;;;;5120721;28;20198;-64
2023/12/18 09:37:28;;;;;;;14.00;13.40;;;4.90;99.90;;;;;;5122222;28;20209;-64
2023/12/18 09:39:55;;;;;;;13.47;12.97;;;4.90;99.90;;;;;;5118668;27;20198;-64
2023/12/18 09:42:22;;;;;;;13.23;12.73;;;4.90;99.90;;;;;;5112731;27;20197;-64
2023/12/18 09:44:49;;;;;;;12.63;12.13;;;5.00;99.90;;;;;;5118356;27;20450;-65
2023/12/18 09:47:17;;;;;;;12.73;12.23;;;5.10;99.90;;;;;;5120955;28;20198;-65
2023/12/18 09:49:45;;;;;;;12.23;11.80;;;5.30;99.90;;;;;;5116232;27;20225;-65
2023/12/18 09:52:14;;;;;;;12.63;12.13;;;5.50;99.90;;;;;;5112110;27;20209;-64
2023/12/18 09:54:43;;;;;;;12.23;11.63;;;5.60;99.90;;;;;;5113491;28;20218;-64
2023/12/18 09:57:12;;;;;;;12.63;12.13;;;5.80;99.90;;;;;;5107883;28;20209;-64
2023/12/18 09:59:39;;;;;;;12.73;12.23;;;5.90;99.90;;;;;;5116394;27;20291;-65
2023/12/18 10:02:08;;;;;;;12.23;11.73;;;6.00;99.90;;;;;;5114866;27;20197;-64
2023/12/18 10:04:35;;;;;;;13.20;12.70;;;5.90;99.90;;;;;;5105428;28;20239;-66
2023/12/18 10:07:03;;;;;;;12.63;12.13;;;5.70;99.90;;;;;;5110513;28;20673;-66
2023/12/18 10:09:34;;;;;;;13.07;12.57;;;5.80;99.90;;;;;;5109996;28;20221;-64
2023/12/18 10:12:02;;;;;;;12.23;11.83;;;5.80;99.90;;;;;;5115875;28;20228;-64
2023/12/18 10:14:30;;;;;;;12.93;12.43;;;5.70;99.90;;;;;;5118157;27;20198;-66
2023/12/18 10:16:57;;;;;;;13.27;12.70;;;5.50;99.90;;;;;;5113677;27;20586;-65
2023/12/18 10:19:24;;;;;;;12.37;11.87;;;5.50;99.90;;;;;;5114901;27;20232;-64
2023/12/18 10:21:51;;;;;;;12.43;11.93;;;5.50;99.90;;;;;;5110978;27;20206;-65
2023/12/18 10:24:20;;;;;;;13.07;12.57;;;5.60;99.90;;;;;;5113852;27;20229;-64
2023/12/18 10:26:48;;;;;;;12.33;11.83;;;5.60;99.90;;;;;;5116294;27;20206;-66
2023/12/18 10:29:15;;;;;;;13.33;12.67;;;5.70;99.90;;;;;;5114545;27;20318;-65
2023/12/18 10:31:42;;;;;;;12.20;11.80;;;5.60;99.90;;;;;;5115147;27;20675;-64
2023/12/18 10:34:09;;;;;;;12.63;12.13;;;5.60;99.90;;;;;;5112632;27;20423;-64
2023/12/18 10:36:38;;;;;;;12.10;11.63;;;5.70;99.90;;;;;;5112843;27;20284;-66
2023/12/18 10:39:09;;;;;;;11.70;11.30;;;5.80;99.90;;;;;;5108338;28;20228;-65
2023/12/18 10:41:40;;;;;;;12.33;11.83;;;5.90;99.90;;;;;;5106520;28;20209;-65
2023/12/18 10:44:10;;;;;;;12.03;11.63;;;5.90;99.90;;;;;;5104669;27;20627;-66
2023/12/18 10:46:38;;;;;;;12.33;11.83;;;6.00;99.90;;;;;;5111243;27;20202;-65
2023/12/18 10:49:07;;;;;;;12.13;11.73;;;6.00;99.90;;;;;;5107875;28;20229;-65
2023/12/18 10:51:36;;;;;;;12.00;11.60;;;6.10;99.90;;;;;;5112030;27;20241;-65
2023/12/18 10:54:03;;;;;;;11.63;11.23;;;6.30;99.90;;;;;;5110914;27;20208;-65
2023/12/18 10:56:31;;;;;;;12.10;11.70;;;6.50;99.90;;;;;;5112524;27;20261;-65
2023/12/18 10:59:02;;;;;;;11.60;11.20;;;6.70;99.90;;;;;;5111677;28;20237;-66
2023/12/18 11:01:30;;;;;;;12.17;11.73;;;6.80;99.90;;;;;;5111151;27;20698;-65
2023/12/18 11:03:57;;;;;;;12.17;11.77;;;6.80;99.90;;;;;;5111701;28;20205;-64
2023/12/18 11:06:24;;;;;;;11.77;11.37;;;6.90;99.90;;;;;;5111507;27;20225;-65
2023/12/18 11:08:51;;;;;;;11.70;11.30;;;7.00;99.90;;;;;;5110919;27;20225;-65
2023/12/18 11:11:20;;;;;;;11.70;11.30;;;7.00;99.90;;;;;;5111574;28;20598;-64
2023/12/18 11:14:04;;;;;;;12.13;11.70;;;7.00;99.90;;;;;;5112319;28;20220;-65
2023/12/18 11:16:41;;;;;;;13.43;12.83;;;7.10;99.90;;;;;;5111971;28;20274;-66
2023/12/18 11:19:17;;;;;;;11.80;11.40;;;7.20;99.90;;;;;;5108318;28;20316;-64
2023/12/18 11:21:43;;;;;;;12.40;11.87;;;7.20;99.90;;;;;;5115713;28;20189;-65
2023/12/18 11:24:10;;;;;;;12.00;11.50;;;7.30;99.90;;;;;;5117282;27;20214;-64
2023/12/18 11:26:39;;;;;;;11.80;11.40;;;7.40;99.90;;;;;;5117533;28;20208;-65
2023/12/18 11:29:39;;;;;;;11.83;11.43;;;7.50;99.90;;;;;;5109612;28;20230;-65
2023/12/18 11:32:07;;;;;;;11.77;11.37;;;7.50;99.90;;;;;;5105828;28;20266;-64
2023/12/18 11:34:34;;;;;;;12.17;11.67;;;7.50;99.90;;;;;;5107269;28;20671;-66
2023/12/18 11:37:01;;;;;;;11.50;11.10;;;7.50;99.90;;;;;;5111828;28;20213;-65
2023/12/18 11:39:38;;;;;;;11.77;11.37;;;7.50;99.90;;;;;;5103616;28;20222;-66
2023/12/18 11:42:05;;;;;;;12.30;11.70;;;7.50;99.90;;;;;;5107113;28;20202;-66
2023/12/18 11:44:35;;;;;;;11.80;11.40;;;7.40;99.90;;;;;;5112623;28;20220;-65
2023/12/18 11:47:02;;;;;;;11.83;11.33;;;7.40;99.90;;;;;;5121072;28;20201;-65
2023/12/18 11:49:28;;;;;;;11.53;11.13;;;7.40;99.90;;;;;;5111505;28;20627;-65
2023/12/18 11:51:59;;;;;;;12.63;12.13;;;7.40;99.90;;;;;;5107838;28;20682;-66
2023/12/18 11:54:26;;;;;;;11.67;11.27;;;7.30;99.90;;;;;;5117956;28;20202;-65
2023/12/18 11:56:56;;;;;;;11.60;11.20;;;7.30;99.90;;;;;;5111847;27;20232;-65
2023/12/18 11:59:23;;;;;;;11.87;11.47;;;7.30;99.90;;;;;;5111535;28;20224;-65
2023/12/18 12:01:52;;;;;;;11.83;11.43;;;7.30;99.90;;;;;;5102406;28;20296;-65
2023/12/18 12:04:21;;;;;;;11.33;10.93;;;7.30;99.90;;;;;;5104989;28;20223;-65
2023/12/18 12:06:48;;;;;;;11.40;11.00;;;7.30;99.90;;;;;;5111752;28;20206;-65
2023/12/18 12:09:15;;;;;;;12.20;11.80;;;7.30;99.90;;;;;;5111660;28;20218;-66
2023/12/18 12:11:42;;;;;;;11.70;11.30;;;7.30;99.90;;;;;;5110535;28;20581;-64
2023/12/18 12:14:09;;;;;;;11.90;11.50;;;7.30;99.90;;;;;;5104833;28;20570;-64
2023/12/18 12:16:35;;;;;;;12.90;12.40;;;7.30;99.90;;;;;;5104748;28;20198;-65
2023/12/18 12:19:03;;;;;;;11.70;11.30;;;7.30;99.90;;;;;;5111887;28;20237;-66
2023/12/18 12:21:30;;;;;;;12.20;11.70;;;7.30;99.90;;;;;;5112237;28;20587;-66
2023/12/18 12:23:57;;;;;;;12.37;11.87;;;7.30;99.90;;;;;;5110099;28;20251;-65
2023/12/18 12:26:25;;;;;;;12.53;12.03;;;7.30;99.90;;;;;;5114389;28;20275;-65
2023/12/18 12:28:52;;;;;;;11.83;11.33;;;7.30;99.90;;;;;;5111398;28;20221;-65
2023/12/18 12:31:19;;;;;;;12.90;12.40;;;7.30;99.90;;;;;;5115861;27;20201;-65
2023/12/18 12:33:48;;;;;;;11.67;11.27;;;7.30;99.90;;;;;;5108718;28;20198;-65
2023/12/18 12:36:20;;;;;;;11.90;11.50;;;7.40;99.90;;;;;;5110232;28;20255;-65